Time;durP1;ratioP1;P1;durP2;ratioP2;P2;SDS_P1;SDS_P2;PMS_P1;PMS_P2;Temp;Humidity;BMP_temperature;BMP_pressure;BME280_temperature;BME280_humidity;BME280_pressure;Samples;Min_cycle;Max_cycle;Signal;HPM_P1;HPM_P2
2022/12/04 00:01:46;;;;;;;34.17;19.53;;;2.70;99.90;;;;;;5068832;28;20184;-74
2022/12/04 00:04:11;;;;;;;41.57;19.63;;;2.70;99.90;;;;;;5076798;28;20278;-73
2022/12/04 00:06:37;;;;;;;33.30;20.53;;;2.70;99.90;;;;;;5079231;28;20210;-74
2022/12/04 00:09:02;;;;;;;33.57;20.33;;;2.80;99.90;;;;;;5066410;28;20181;-74
2022/12/04 00:11:31;;;;;;;34.83;19.23;;;2.60;99.90;;;;;;5059310;28;20666;-73
2022/12/04 00:13:57;;;;;;;35.60;19.30;;;2.60;99.90;;;;;;5052560;28;20210;-73
2022/12/04 00:16:25;;;;;;;30.67;19.73;;;2.60;99.90;;;;;;5051932;28;20550;-73
2022/12/04 00:18:51;;;;;;;33.43;19.63;;;2.60;99.90;;;;;;5060112;28;20437;-74
2022/12/04 00:21:18;;;;;;;38.70;19.63;;;2.50;99.90;;;;;;5056068;28;20428;-73
2022/12/04 00:23:45;;;;;;;29.33;19.97;;;2.60;99.90;;;;;;5041988;28;20482;-74
2022/12/04 00:26:16;;;;;;;35.97;20.80;;;2.60;99.90;;;;;;5062897;28;20573;-74
2022/12/04 00:28:42;;;;;;;31.53;20.00;;;2.60;99.90;;;;;;5060546;28;20431;-74
2022/12/04 00:31:10;;;;;;;30.43;18.50;;;2.60;99.90;;;;;;5063466;28;20441;-74
2022/12/04 00:33:36;;;;;;;31.00;19.13;;;2.50;99.90;;;;;;5057181;28;20830;-73
2022/12/04 00:36:05;;;;;;;33.17;19.10;;;2.60;99.90;;;;;;5060874;28;20466;-74
2022/12/04 00:38:31;;;;;;;30.93;19.97;;;2.70;99.90;;;;;;5064636;28;20551;-74
2022/12/04 00:40:57;;;;;;;27.63;18.30;;;2.60;99.90;;;;;;5049509;28;20432;-72
2022/12/04 00:43:22;;;;;;;37.20;21.57;;;2.50;99.90;;;;;;5055722;28;20180;-72
2022/12/04 00:45:48;;;;;;;31.87;20.07;;;2.50;99.90;;;;;;5056817;28;20196;-74
2022/12/04 00:48:14;;;;;;;33.23;19.97;;;2.60;99.90;;;;;;5058439;28;20228;-71
2022/12/04 00:50:40;;;;;;;33.87;20.03;;;2.60;99.90;;;;;;5064687;28;20850;-71
2022/12/04 00:53:06;;;;;;;30.97;19.33;;;2.70;99.90;;;;;;5058259;28;20205;-74
2022/12/04 00:55:32;;;;;;;35.70;19.40;;;2.70;99.90;;;;;;5056661;28;20508;-74
2022/12/04 00:57:57;;;;;;;33.07;19.17;;;2.60;99.90;;;;;;5052596;28;20702;-72
2022/12/04 01:00:23;;;;;;;33.13;18.20;;;2.60;99.90;;;;;;5064343;28;20181;-74
2022/12/04 01:02:48;;;;;;;29.73;19.03;;;2.60;99.90;;;;;;5058531;28;20550;-74
2022/12/04 01:05:14;;;;;;;31.87;18.47;;;2.60;99.90;;;;;;5050894;28;20205;-74
2022/12/04 01:07:40;;;;;;;32.90;18.90;;;2.70;99.90;;;;;;5055696;28;20181;-72
2022/12/04 01:10:07;;;;;;;27.80;17.33;;;2.60;99.90;;;;;;5061973;28;20526;-72
2022/12/04 01:12:33;;;;;;;28.30;19.90;;;2.80;99.90;;;;;;5057782;28;20212;-74
2022/12/04 01:14:59;;;;;;;27.50;17.90;;;2.90;99.90;;;;;;5052951;28;20903;-75
2022/12/04 01:17:25;;;;;;;27.37;16.93;;;2.80;99.90;;;;;;5056163;28;20496;-72
2022/12/04 01:19:51;;;;;;;32.37;18.50;;;2.70;99.90;;;;;;5052857;28;20467;-73
2022/12/04 01:22:17;;;;;;;25.10;16.13;;;2.80;99.90;;;;;;5052337;28;20943;-72
2022/12/04 01:24:42;;;;;;;26.00;17.27;;;2.80;99.90;;;;;;5055912;28;20499;-74
2022/12/04 01:27:08;;;;;;;29.20;17.10;;;2.70;99.90;;;;;;5060036;28;20272;-72
2022/12/04 01:29:33;;;;;;;29.40;19.10;;;2.70;99.90;;;;;;5046778;28;20189;-72
2022/12/04 01:31:59;;;;;;;29.90;18.60;;;2.70;99.90;;;;;;5054439;28;20190;-72
2022/12/04 01:34:24;;;;;;;28.03;18.17;;;2.70;99.90;;;;;;5063752;28;20215;-72
2022/12/04 01:36:51;;;;;;;21.23;15.33;;;2.70;99.90;;;;;;5062414;28;20204;-72
2022/12/04 01:39:17;;;;;;;26.87;19.37;;;2.70;99.90;;;;;;5055685;28;20267;-71
2022/12/04 01:41:42;;;;;;;22.90;15.23;;;2.80;99.90;;;;;;5055413;28;20519;-72
2022/12/04 01:44:23;;;;;;;24.90;15.00;;;2.80;99.90;;;;;;5060023;28;20208;-72
2022/12/04 01:46:59;;;;;;;20.67;14.23;;;2.80;99.90;;;;;;5051520;28;20192;-72
2022/12/04 01:49:28;;;;;;;26.47;16.07;;;2.80;99.90;;;;;;5042223;28;20438;-72
2022/12/04 01:52:13;;;;;;;27.70;16.87;;;2.80;99.90;;;;;;5056683;28;21031;-72
2022/12/04 01:54:45;;;;;;;25.70;16.23;;;3.00;99.90;;;;;;5054441;28;20482;-72
2022/12/04 01:57:16;;;;;;;24.00;15.07;;;2.90;99.90;;;;;;5054989;28;20875;-72
2022/12/04 02:00:07;;;;;;;24.43;16.10;;;2.90;99.90;;;;;;5057934;28;20439;-72
2022/12/04 02:02:35;;;;;;;22.57;15.47;;;2.80;99.90;;;;;;5050548;28;20518;-72
2022/12/04 02:05:03;;;;;;;23.60;17.07;;;2.70;99.90;;;;;;5047104;28;20456;-70
2022/12/04 02:07:29;;;;;;;24.20;17.23;;;2.70;99.90;;;;;;5044594;28;20447;-69
2022/12/04 02:09:54;;;;;;;25.93;18.00;;;2.70;99.90;;;;;;5041083;28;20443;-69
2022/12/04 02:12:52;;;;;;;28.57;19.67;;;2.60;99.90;;;;;;5046053;28;20635;-70
2022/12/04 02:15:18;;;;;;;24.30;17.50;;;2.60;99.90;;;;;;5054464;28;20694;-70
2022/12/04 02:17:59;;;;;;;27.07;17.53;;;2.60;99.90;;;;;;5057997;28;20549;-69
2022/12/04 02:21:05;;;;;;;25.10;16.97;;;2.70;99.90;;;;;;5044782;28;20199;-69
2022/12/04 02:23:49;;;;;;;25.70;16.77;;;2.70;99.90;;;;;;5053619;28;20463;-69
2022/12/04 02:26:29;;;;;;;23.67;16.70;;;2.70;99.90;;;;;;5049020;28;21636;-69
2022/12/04 02:29:23;;;;;;;30.80;20.20;;;2.50;99.90;;;;;;5046915;28;20444;-70
2022/12/04 02:32:00;;;;;;;29.27;18.40;;;2.50;99.90;;;;;;5039727;28;20473;-69
2022/12/04 02:34:37;;;;;;;25.70;17.13;;;2.40;99.90;;;;;;5043758;28;20483;-69
2022/12/04 02:37:24;;;;;;;29.50;20.07;;;2.40;99.90;;;;;;5051222;28;20799;-69
2022/12/04 02:39:58;;;;;;;26.70;17.20;;;2.50;99.90;;;;;;5042773;28;20529;-69
2022/12/04 02:42:39;;;;;;;28.73;18.30;;;2.60;99.90;;;;;;5049856;28;20565;-69
2022/12/04 02:45:13;;;;;;;29.90;18.30;;;2.60;99.90;;;;;;5053623;28;20533;-69
2022/12/04 02:47:41;;;;;;;33.57;20.87;;;2.70;99.90;;;;;;5053946;28;20447;-69
2022/12/04 02:50:13;;;;;;;29.67;18.67;;;2.60;99.90;;;;;;5054574;28;20435;-69
2022/12/04 02:52:44;;;;;;;28.80;17.77;;;2.70;99.90;;;;;;5062717;28;20441;-69
2022/12/04 02:55:18;;;;;;;24.90;16.13;;;2.70;99.90;;;;;;5050750;28;20925;-70
2022/12/04 02:57:49;;;;;;;25.47;17.13;;;2.80;99.90;;;;;;5051585;28;20835;-69
2022/12/04 03:00:16;;;;;;;26.43;18.93;;;2.80;99.90;;;;;;5040691;28;21101;-69
2022/12/04 03:02:53;;;;;;;29.63;18.70;;;2.80;99.90;;;;;;5040887;28;20435;-69
2022/12/04 03:05:23;;;;;;;34.70;18.13;;;2.80;99.90;;;;;;5050247;28;20455;-69
2022/12/04 03:07:54;;;;;;;26.57;18.03;;;2.80;99.90;;;;;;5046349;28;20447;-69
2022/12/04 03:10:26;;;;;;;28.50;19.40;;;2.80;99.90;;;;;;5056081;28;20435;-69
2022/12/04 03:13:03;;;;;;;27.80;17.97;;;2.70;99.90;;;;;;5062136;28;20940;-69
2022/12/04 03:15:32;;;;;;;28.53;18.77;;;2.70;99.90;;;;;;5052750;28;20455;-69
2022/12/04 03:18:04;;;;;;;26.40;19.30;;;2.70;99.90;;;;;;5059563;28;20827;-69
2022/12/04 03:20:33;;;;;;;31.17;19.10;;;2.70;99.90;;;;;;5060420;28;20441;-69
2022/12/04 03:23:05;;;;;;;30.83;19.50;;;2.70;99.90;;;;;;5043395;28;20437;-69
2022/12/04 03:25:36;;;;;;;30.17;20.27;;;2.60;99.90;;;;;;5060726;28;20455;-69
2022/12/04 03:28:15;;;;;;;32.33;19.90;;;2.70;99.90;;;;;;5053938;28;20459;-69
2022/12/04 03:30:48;;;;;;;30.70;20.97;;;2.70;99.90;;;;;;5053752;28;20452;-69
2022/12/04 03:33:28;;;;;;;33.73;21.10;;;2.70;99.90;;;;;;5048554;28;20443;-69
2022/12/04 03:36:23;;;;;;;29.43;17.87;;;2.70;99.90;;;;;;5055125;28;20468;-69
2022/12/04 03:39:16;;;;;;;31.47;18.77;;;2.70;99.90;;;;;;5052181;28;20446;-69
2022/12/04 03:41:48;;;;;;;28.87;20.20;;;2.70;99.90;;;;;;5056673;28;20442;-69
2022/12/04 03:44:21;;;;;;;30.20;19.07;;;2.70;99.90;;;;;;5063015;28;20455;-69
2022/12/04 03:46:57;;;;;;;30.60;19.37;;;2.30;99.90;;;;;;5060014;28;20438;-69
2022/12/04 03:49:22;;;;;;;29.93;19.50;;;2.60;99.90;;;;;;5052908;28;20961;-69
2022/12/04 03:51:55;;;;;;;27.57;18.17;;;2.50;99.90;;;;;;5056889;28;20440;-69
2022/12/04 03:54:31;;;;;;;34.70;19.63;;;2.70;99.90;;;;;;5065925;28;20235;-70
2022/12/04 03:57:03;;;;;;;33.30;19.33;;;2.60;99.90;;;;;;5060110;28;20473;-69
2022/12/04 04:00:10;;;;;;;32.07;18.97;;;2.60;99.90;;;;;;5055002;28;20794;-69
2022/12/04 04:02:41;;;;;;;30.23;19.20;;;2.70;99.90;;;;;;5011890;28;20515;-69
2022/12/04 04:05:10;;;;;;;29.47;17.70;;;2.80;99.90;;;;;;5019701;28;20547;-69
2022/12/04 04:07:47;;;;;;;24.70;15.40;;;2.80;99.90;;;;;;5020897;28;20447;-69
2022/12/04 04:10:18;;;;;;;33.37;19.60;;;2.80;99.90;;;;;;5050252;28;21013;-69
2022/12/04 04:24:15;;;;;;;25.97;16.70;;;2.70;99.90;;;;;;5044495;28;20879;-69
2022/12/04 04:26:47;;;;;;;28.77;16.40;;;2.60;99.90;;;;;;5044324;28;20440;-69
2022/12/04 04:29:13;;;;;;;23.63;14.40;;;2.50;99.90;;;;;;5051169;28;20523;-69
2022/12/04 04:32:01;;;;;;;27.37;15.93;;;2.40;99.90;;;;;;5049466;28;20511;-69
2022/12/04 04:34:26;;;;;;;26.70;17.37;;;2.50;99.90;;;;;;5043150;28;20899;-69
2022/12/04 04:37:13;;;;;;;32.23;16.70;;;2.40;99.90;;;;;;5052658;28;20463;-69
2022/12/04 04:39:41;;;;;;;25.77;14.57;;;2.40;99.90;;;;;;5064259;28;20285;-69
2022/12/04 04:42:25;;;;;;;27.97;17.60;;;2.30;99.90;;;;;;5065295;28;20480;-69
2022/12/04 04:45:15;;;;;;;30.60;15.53;;;2.40;99.90;;;;;;5052292;28;20460;-69
2022/12/04 04:47:46;;;;;;;22.27;14.27;;;2.40;99.90;;;;;;5055986;28;20439;-69
2022/12/04 04:50:13;;;;;;;23.97;14.90;;;2.30;99.90;;;;;;5058518;28;20439;-69
2022/12/04 04:52:45;;;;;;;27.17;16.37;;;2.30;99.90;;;;;;5053260;28;20491;-69
2022/12/04 04:55:11;;;;;;;26.43;15.07;;;2.30;99.90;;;;;;5061642;28;20826;-69
2022/12/04 04:57:37;;;;;;;26.70;15.73;;;2.30;99.90;;;;;;5058802;28;20462;-69
2022/12/04 05:00:21;;;;;;;27.50;14.77;;;2.40;99.90;;;;;;5062596;28;20438;-69
2022/12/04 05:02:48;;;;;;;26.13;15.27;;;2.40;99.90;;;;;;5053052;28;20524;-69
2022/12/04 05:05:15;;;;;;;21.40;13.20;;;2.40;99.90;;;;;;5045417;28;20539;-69
2022/12/04 05:07:41;;;;;;;25.80;14.83;;;2.30;99.90;;;;;;5044494;28;20903;-69
2022/12/04 05:10:07;;;;;;;28.00;15.17;;;2.30;99.90;;;;;;5046028;28;20512;-69
2022/12/04 05:12:33;;;;;;;27.73;14.50;;;2.20;99.90;;;;;;5048340;28;20769;-69
2022/12/04 05:14:58;;;;;;;21.93;14.20;;;2.30;99.90;;;;;;5047581;28;20505;-68
2022/12/04 05:17:24;;;;;;;28.87;16.63;;;2.30;99.90;;;;;;5043662;28;20200;-68
2022/12/04 05:19:53;;;;;;;19.90;14.07;;;2.30;99.90;;;;;;5045386;28;20182;-68
2022/12/04 05:22:21;;;;;;;26.10;15.37;;;2.20;99.90;;;;;;5042280;28;20232;-68
2022/12/04 05:24:47;;;;;;;25.17;15.10;;;2.20;99.90;;;;;;5048427;28;20451;-68
2022/12/04 05:27:12;;;;;;;24.97;15.00;;;2.20;99.90;;;;;;5049623;28;20446;-69
2022/12/04 05:29:38;;;;;;;28.50;17.27;;;2.30;99.90;;;;;;5046126;28;20216;-68
2022/12/04 05:32:04;;;;;;;23.50;14.20;;;2.30;99.90;;;;;;5045739;28;20581;-69
2022/12/04 05:34:29;;;;;;;25.07;15.10;;;2.30;99.90;;;;;;5046793;28;20247;-69
2022/12/04 05:36:55;;;;;;;26.90;16.17;;;2.30;99.90;;;;;;5052111;28;20463;-68
2022/12/04 05:39:20;;;;;;;24.00;15.03;;;2.30;99.90;;;;;;5059235;28;20207;-68
2022/12/04 05:41:46;;;;;;;27.00;14.13;;;2.20;99.90;;;;;;5058941;28;20174;-69
2022/12/04 05:44:12;;;;;;;24.40;15.97;;;2.20;99.90;;;;;;5064750;28;20201;-69
2022/12/04 05:46:37;;;;;;;24.17;15.77;;;2.30;99.90;;;;;;5054582;28;20185;-69
2022/12/04 05:49:03;;;;;;;28.50;14.77;;;2.30;99.90;;;;;;5049928;28;20189;-69
2022/12/04 05:51:29;;;;;;;26.53;15.63;;;2.30;99.90;;;;;;5062486;28;20176;-69
2022/12/04 05:53:54;;;;;;;27.03;16.77;;;2.30;99.90;;;;;;5055270;28;20209;-69
2022/12/04 05:56:20;;;;;;;27.23;14.93;;;2.30;99.90;;;;;;5064030;28;20201;-69
2022/12/04 05:58:45;;;;;;;25.20;14.33;;;2.20;99.90;;;;;;5056834;28;20510;-69
2022/12/04 06:01:15;;;;;;;27.83;15.60;;;2.30;99.90;;;;;;5060924;28;20182;-69
2022/12/04 06:03:40;;;;;;;27.30;16.00;;;2.30;99.90;;;;;;5057052;28;20177;-69
2022/12/04 06:06:14;;;;;;;23.07;14.90;;;2.30;99.90;;;;;;5048257;28;20443;-68
2022/12/04 06:08:40;;;;;;;29.97;17.40;;;2.30;99.90;;;;;;5043897;28;20337;-69
2022/12/04 06:11:11;;;;;;;24.10;13.33;;;2.40;99.90;;;;;;5041138;28;20486;-69
2022/12/04 06:13:36;;;;;;;24.33;14.20;;;2.50;99.90;;;;;;5038683;28;20190;-68
2022/12/04 06:16:02;;;;;;;21.43;12.70;;;2.60;99.90;;;;;;5039080;28;20439;-69
2022/12/04 06:18:27;;;;;;;22.93;13.97;;;2.60;99.90;;;;;;5042617;28;20235;-69
2022/12/04 06:20:57;;;;;;;27.20;14.33;;;2.60;99.90;;;;;;5047851;28;20663;-69
2022/12/04 06:23:22;;;;;;;21.00;13.60;;;2.50;99.90;;;;;;5031942;28;20209;-69
2022/12/04 06:25:48;;;;;;;26.73;14.90;;;2.60;99.90;;;;;;5049714;28;20460;-68
2022/12/04 06:28:13;;;;;;;26.47;16.20;;;2.70;99.90;;;;;;5038890;28;20192;-68
2022/12/04 06:30:39;;;;;;;22.40;13.63;;;2.70;99.90;;;;;;5055616;28;20195;-68
2022/12/04 06:33:04;;;;;;;23.47;15.90;;;2.70;99.90;;;;;;5049248;28;20232;-69
2022/12/04 06:35:30;;;;;;;25.37;15.37;;;2.80;99.90;;;;;;5056613;28;20209;-69
2022/12/04 06:37:55;;;;;;;20.73;13.17;;;2.80;99.90;;;;;;5055533;28;20670;-69
2022/12/04 06:40:21;;;;;;;23.73;15.00;;;2.90;99.90;;;;;;5053530;28;20663;-69
2022/12/04 06:42:46;;;;;;;21.63;14.87;;;2.80;99.90;;;;;;5054868;28;20532;-69
2022/12/04 06:45:12;;;;;;;23.90;16.03;;;2.90;99.90;;;;;;5056536;28;20202;-68
2022/12/04 06:47:37;;;;;;;22.53;14.17;;;2.80;99.90;;;;;;5062843;28;20181;-69
2022/12/04 06:50:03;;;;;;;25.80;14.63;;;2.70;99.90;;;;;;5056496;28;20193;-68
2022/12/04 06:52:32;;;;;;;25.10;13.80;;;2.80;99.90;;;;;;5051239;28;20173;-69
2022/12/04 06:54:58;;;;;;;28.80;16.07;;;2.70;99.90;;;;;;5052127;28;20459;-69
2022/12/04 06:57:23;;;;;;;30.13;16.17;;;2.50;99.90;;;;;;5051993;28;20467;-69
2022/12/04 06:59:49;;;;;;;24.60;13.10;;;2.70;99.90;;;;;;5043334;28;20213;-69
2022/12/04 07:02:14;;;;;;;26.50;15.27;;;2.70;99.90;;;;;;5053017;28;20185;-69
2022/12/04 07:04:40;;;;;;;23.53;14.37;;;2.70;99.90;;;;;;5057749;28;20208;-69
2022/12/04 07:07:08;;;;;;;25.43;17.07;;;2.70;99.90;;;;;;5041867;28;20193;-69
2022/12/04 07:09:34;;;;;;;26.60;14.27;;;2.70;99.90;;;;;;5042295;28;20196;-69
2022/12/04 07:12:00;;;;;;;25.33;14.63;;;2.80;99.90;;;;;;5048414;28;20441;-68
2022/12/04 07:14:25;;;;;;;23.90;14.37;;;2.80;99.90;;;;;;5042860;28;20201;-68
2022/12/04 07:16:51;;;;;;;25.40;15.40;;;2.90;99.90;;;;;;5045916;28;20204;-69
2022/12/04 07:19:16;;;;;;;26.87;17.13;;;2.80;99.90;;;;;;5045348;28;20184;-69
2022/12/04 07:21:42;;;;;;;20.73;14.20;;;2.80;99.90;;;;;;5044910;28;20177;-68
2022/12/04 07:24:13;;;;;;;23.60;13.30;;;2.80;99.90;;;;;;5049796;28;20202;-68
2022/12/04 07:26:39;;;;;;;25.50;13.23;;;2.80;99.90;;;;;;5046508;28;20553;-69
2022/12/04 07:29:04;;;;;;;24.50;14.17;;;2.80;99.90;;;;;;5054050;28;20427;-69
2022/12/04 07:31:30;;;;;;;27.10;16.40;;;2.80;99.90;;;;;;5055826;28;20635;-69
2022/12/04 07:33:56;;;;;;;31.63;16.00;;;2.80;99.90;;;;;;5059798;28;20220;-69
2022/12/04 07:36:24;;;;;;;33.73;18.97;;;2.80;99.90;;;;;;5066074;28;20569;-68
2022/12/04 07:38:51;;;;;;;28.63;16.93;;;2.90;99.90;;;;;;5052881;28;20448;-68
2022/12/04 07:41:18;;;;;;;25.83;15.70;;;2.90;99.90;;;;;;5050758;28;20435;-69
2022/12/04 07:43:43;;;;;;;27.50;16.83;;;2.90;99.90;;;;;;5052729;28;20432;-68
2022/12/04 07:46:16;;;;;;;27.23;14.60;;;2.90;99.90;;;;;;5050672;28;20438;-68
2022/12/04 07:48:42;;;;;;;24.23;14.27;;;2.90;99.90;;;;;;5044478;28;20225;-69
2022/12/04 07:51:17;;;;;;;25.50;14.40;;;2.90;99.90;;;;;;5053216;28;20439;-68
2022/12/04 07:53:43;;;;;;;22.30;12.70;;;2.90;99.90;;;;;;5041855;28;20447;-69
2022/12/04 07:56:10;;;;;;;26.47;14.23;;;2.90;99.90;;;;;;5059643;28;20453;-68
2022/12/04 07:58:36;;;;;;;23.03;13.30;;;2.90;99.90;;;;;;5058004;28;20462;-68
2022/12/04 08:01:09;;;;;;;27.70;16.30;;;2.90;99.90;;;;;;5059480;28;20862;-68
2022/12/04 08:03:35;;;;;;;24.50;13.93;;;3.00;99.90;;;;;;5065025;28;20170;-68
2022/12/04 08:06:02;;;;;;;21.57;13.07;;;3.10;99.90;;;;;;5059074;28;20431;-69
2022/12/04 08:08:28;;;;;;;28.03;15.10;;;3.10;99.90;;;;;;5058140;28;20264;-68
2022/12/04 08:10:53;;;;;;;23.20;14.07;;;3.10;99.90;;;;;;5060542;28;20862;-68
2022/12/04 08:13:19;;;;;;;20.37;13.10;;;2.90;99.90;;;;;;5050552;28;21034;-68
2022/12/04 08:15:44;;;;;;;25.27;13.43;;;3.00;99.90;;;;;;5054671;28;20544;-69
2022/12/04 08:18:10;;;;;;;22.00;12.50;;;2.90;99.90;;;;;;5059018;28;20210;-68
2022/12/04 08:20:35;;;;;;;22.13;13.30;;;3.00;99.90;;;;;;5061655;28;20169;-69
2022/12/04 08:23:01;;;;;;;22.77;13.40;;;2.90;99.90;;;;;;5053923;28;20640;-68
2022/12/04 08:25:27;;;;;;;19.67;13.60;;;2.90;99.90;;;;;;5051666;28;20193;-69
2022/12/04 08:27:53;;;;;;;22.80;15.07;;;2.90;99.90;;;;;;5049480;28;20597;-69
2022/12/04 08:30:18;;;;;;;22.00;13.50;;;2.90;99.90;;;;;;5051432;28;20431;-68
2022/12/04 08:32:44;;;;;;;18.80;12.13;;;2.90;99.90;;;;;;5049586;28;20184;-69
2022/12/04 08:35:09;;;;;;;22.50;13.80;;;3.00;99.90;;;;;;5058354;28;20192;-69
2022/12/04 08:37:35;;;;;;;21.17;14.10;;;3.10;99.90;;;;;;5043919;28;20214;-69
2022/12/04 08:40:00;;;;;;;29.57;16.40;;;3.20;99.90;;;;;;5049145;28;20204;-69
2022/12/04 08:42:26;;;;;;;27.00;14.77;;;3.30;99.90;;;;;;5046638;28;20182;-69
2022/12/04 08:44:52;;;;;;;25.07;15.30;;;3.20;99.90;;;;;;5048849;28;20619;-69
2022/12/04 08:47:17;;;;;;;22.20;14.20;;;3.20;99.90;;;;;;5058323;28;20193;-69
2022/12/04 08:49:43;;;;;;;23.80;13.90;;;3.20;99.90;;;;;;5050725;28;20178;-68
2022/12/04 08:52:08;;;;;;;22.10;13.60;;;3.20;99.90;;;;;;5062961;28;20655;-69
2022/12/04 08:54:34;;;;;;;22.20;13.90;;;3.20;99.90;;;;;;5064195;28;20204;-69
2022/12/04 08:56:59;;;;;;;30.60;16.50;;;3.20;99.90;;;;;;5037568;28;20217;-68
2022/12/04 08:59:25;;;;;;;27.27;16.83;;;3.30;99.90;;;;;;5056877;28;20210;-69
2022/12/04 09:01:50;;;;;;;24.20;14.63;;;3.30;99.90;;;;;;5057445;28;20239;-69
2022/12/04 09:04:17;;;;;;;25.33;16.13;;;3.30;99.90;;;;;;5065471;28;20205;-69
2022/12/04 09:06:42;;;;;;;23.07;14.80;;;3.30;99.90;;;;;;5059382;28;20239;-69
2022/12/04 09:09:08;;;;;;;24.80;15.40;;;3.30;99.90;;;;;;5061255;28;20455;-69
2022/12/04 09:11:33;;;;;;;22.20;13.23;;;3.30;99.90;;;;;;5054097;28;20182;-69
2022/12/04 09:14:01;;;;;;;21.63;13.20;;;3.30;99.90;;;;;;5056559;28;20219;-68
2022/12/04 09:16:26;;;;;;;22.37;13.30;;;3.40;99.90;;;;;;5055317;28;20204;-68
2022/12/04 09:18:53;;;;;;;20.27;12.80;;;3.30;99.90;;;;;;5058840;28;20963;-68
2022/12/04 09:21:20;;;;;;;20.97;13.37;;;3.30;99.90;;;;;;5066361;28;20181;-69
2022/12/04 09:23:46;;;;;;;19.50;13.40;;;3.30;99.90;;;;;;5051240;28;20439;-68
2022/12/04 09:26:38;;;;;;;26.40;15.90;;;3.30;99.90;;;;;;5059277;28;20432;-69
2022/12/04 09:29:04;;;;;;;21.10;14.87;;;3.40;99.90;;;;;;5052182;28;20445;-69
2022/12/04 09:31:31;;;;;;;21.37;14.17;;;3.50;99.90;;;;;;5052349;28;20428;-68
2022/12/04 09:34:00;;;;;;;18.70;13.00;;;3.60;99.90;;;;;;5067739;28;20459;-69
2022/12/04 09:36:26;;;;;;;24.80;13.53;;;3.60;99.90;;;;;;5058791;28;20454;-68
2022/12/04 09:38:53;;;;;;;19.30;13.07;;;3.60;99.90;;;;;;5047872;28;20432;-69
2022/12/04 09:41:40;;;;;;;23.70;13.90;;;3.60;99.90;;;;;;5057472;28;20425;-68
2022/12/04 09:44:21;;;;;;;21.17;14.27;;;3.70;99.90;;;;;;5054451;28;20463;-69
2022/12/04 09:47:00;;;;;;;25.20;14.77;;;3.60;99.90;;;;;;5052846;28;20518;-68
2022/12/04 09:49:37;;;;;;;21.00;12.87;;;3.60;99.90;;;;;;5049047;28;20493;-69
2022/12/04 09:52:21;;;;;;;24.47;15.30;;;3.70;99.90;;;;;;5055390;28;20498;-69
2022/12/04 09:54:49;;;;;;;23.03;14.93;;;3.60;99.90;;;;;;5058507;28;20981;-69
2022/12/04 09:57:28;;;;;;;22.87;13.93;;;3.60;99.90;;;;;;5045711;28;20464;-69
2022/12/04 09:59:53;;;;;;;22.30;15.93;;;3.70;99.90;;;;;;5050974;28;20447;-68
2022/12/04 10:02:40;;;;;;;19.50;12.90;;;3.90;99.90;;;;;;5056745;28;20432;-68
2022/12/04 10:05:15;;;;;;;22.83;13.17;;;3.80;99.90;;;;;;5054327;28;20209;-70
2022/12/04 10:07:49;;;;;;;20.27;14.30;;;3.80;99.90;;;;;;5053385;28;20524;-70
2022/12/04 10:10:37;;;;;;;22.40;15.47;;;3.80;99.90;;;;;;5060024;28;20430;-69
2022/12/04 10:13:23;;;;;;;20.83;14.57;;;3.80;99.90;;;;;;5050864;28;20440;-70
2022/12/04 10:16:25;;;;;;;24.23;15.60;;;3.80;99.90;;;;;;5060390;28;20461;-70
2022/12/04 10:19:22;;;;;;;28.70;15.87;;;3.80;99.90;;;;;;5051492;28;20442;-70
2022/12/04 10:22:17;;;;;;;25.77;18.00;;;3.80;99.90;;;;;;5060220;28;20435;-70
2022/12/04 10:24:54;;;;;;;25.20;16.80;;;3.70;99.90;;;;;;5047186;28;20945;-69
2022/12/04 10:27:27;;;;;;;22.37;15.90;;;3.70;99.90;;;;;;5045515;28;20953;-70
2022/12/04 10:30:03;;;;;;;23.40;15.43;;;3.70;99.90;;;;;;5041783;28;20511;-69
2022/12/04 10:32:31;;;;;;;23.47;15.57;;;3.70;99.90;;;;;;5056006;28;20445;-70
2022/12/04 10:35:07;;;;;;;24.70;16.50;;;3.80;99.90;;;;;;5054087;28;20472;-70
2022/12/04 10:37:39;;;;;;;25.93;16.50;;;3.90;99.90;;;;;;5065317;28;20523;-70
2022/12/04 10:40:17;;;;;;;25.40;16.60;;;3.90;99.90;;;;;;5060648;28;20459;-70
2022/12/04 10:42:54;;;;;;;19.93;14.07;;;4.00;99.90;;;;;;5045071;28;20455;-70
2022/12/04 10:45:21;;;;;;;23.30;15.20;;;4.00;99.90;;;;;;5053728;28;20458;-70
2022/12/04 10:47:48;;;;;;;27.13;18.10;;;3.90;99.90;;;;;;5054291;28;20438;-70
2022/12/04 10:50:18;;;;;;;21.97;15.57;;;3.90;99.90;;;;;;5035269;28;20436;-70
2022/12/04 10:52:45;;;;;;;24.23;15.30;;;4.00;99.90;;;;;;5054978;28;20442;-70
2022/12/04 10:55:11;;;;;;;26.97;17.10;;;3.90;99.90;;;;;;5054301;28;20838;-70
2022/12/04 10:57:44;;;;;;;28.27;15.97;;;3.90;99.90;;;;;;5055797;28;20464;-70
2022/12/04 11:00:27;;;;;;;28.03;17.83;;;3.90;99.90;;;;;;5053748;28;20440;-70
2022/12/04 11:02:56;;;;;;;29.07;17.87;;;3.90;99.90;;;;;;5051554;28;20479;-70
2022/12/04 11:05:26;;;;;;;29.53;18.37;;;3.90;99.90;;;;;;5056843;28;20490;-70
2022/12/04 11:07:53;;;;;;;29.47;18.00;;;3.90;99.90;;;;;;5055669;28;20448;-70
2022/12/04 11:10:24;;;;;;;28.63;17.50;;;3.80;99.90;;;;;;5051794;28;20971;-70
2022/12/04 11:13:01;;;;;;;35.30;19.70;;;3.90;99.90;;;;;;5044131;28;20522;-70
2022/12/04 11:15:27;;;;;;;28.13;18.17;;;3.90;99.90;;;;;;5051119;28;20462;-70
2022/12/04 11:17:53;;;;;;;29.13;18.23;;;3.90;99.90;;;;;;5058456;28;20491;-70
2022/12/04 11:20:20;;;;;;;24.77;17.30;;;3.70;99.90;;;;;;5056933;28;20604;-70
2022/12/04 11:22:53;;;;;;;28.73;18.77;;;3.80;99.90;;;;;;5053344;28;20186;-70
2022/12/04 11:25:20;;;;;;;28.23;18.17;;;3.80;99.90;;;;;;5051589;28;20477;-70
2022/12/04 11:27:49;;;;;;;29.20;18.60;;;3.80;99.90;;;;;;5048624;28;21004;-70
2022/12/04 11:30:20;;;;;;;31.00;20.73;;;3.90;99.90;;;;;;5060294;28;20494;-70
2022/12/04 11:32:46;;;;;;;34.37;20.67;;;3.90;99.90;;;;;;5059527;28;20439;-70
2022/12/04 11:35:16;;;;;;;32.63;19.10;;;3.80;99.90;;;;;;5044699;28;20454;-70
2022/12/04 11:37:56;;;;;;;28.07;21.53;;;3.70;99.90;;;;;;5038397;28;20210;-70
2022/12/04 11:40:23;;;;;;;28.87;19.40;;;3.70;99.90;;;;;;5039985;28;20439;-75
2022/12/04 11:43:12;;;;;;;27.90;18.53;;;3.60;99.90;;;;;;5045779;28;20431;-73
2022/12/04 11:45:38;;;;;;;29.13;19.97;;;3.70;99.90;;;;;;5042097;28;21029;-71
2022/12/04 11:48:14;;;;;;;35.50;21.30;;;3.50;99.90;;;;;;5051503;28;20802;-74
2022/12/04 11:50:39;;;;;;;31.87;19.57;;;3.70;99.90;;;;;;5042453;28;20435;-74
2022/12/04 11:53:17;;;;;;;28.70;20.07;;;3.70;99.90;;;;;;5052796;28;20436;-74
2022/12/04 11:55:55;;;;;;;34.60;19.47;;;3.70;99.90;;;;;;5057203;28;20205;-73
2022/12/04 11:58:50;;;;;;;28.60;19.50;;;3.70;99.90;;;;;;5059442;28;20947;-71
2022/12/04 12:01:43;;;;;;;30.13;19.17;;;3.70;99.90;;;;;;5042793;28;21013;-73
2022/12/04 12:04:33;;;;;;;29.27;19.30;;;3.80;99.90;;;;;;5055570;28;20492;-74
2022/12/04 12:07:23;;;;;;;36.03;21.63;;;3.80;99.90;;;;;;5044216;28;20439;-74
2022/12/04 12:10:15;;;;;;;33.77;19.73;;;3.70;99.90;;;;;;5039617;28;20530;-73
2022/12/04 12:13:02;;;;;;;36.93;20.00;;;3.70;99.90;;;;;;5042238;28;20432;-73
2022/12/04 12:15:51;;;;;;;33.73;19.57;;;3.60;99.90;;;;;;5042739;28;20457;-74
2022/12/04 12:18:48;;;;;;;37.27;22.77;;;3.60;99.90;;;;;;5046084;28;20463;-73
2022/12/04 12:21:21;;;;;;;33.43;19.67;;;3.60;99.90;;;;;;5047866;28;20438;-74
2022/12/04 12:24:22;;;;;;;32.07;19.60;;;3.50;99.90;;;;;;5041656;28;20981;-74
2022/12/04 12:27:11;;;;;;;28.73;17.27;;;3.70;99.90;;;;;;5003098;28;21694;-74
2022/12/04 12:30:07;;;;;;;27.37;17.97;;;3.70;99.90;;;;;;5046670;28;20436;-74
2022/12/04 12:33:04;;;;;;;38.50;21.07;;;3.80;99.90;;;;;;5054458;28;20432;-74
2022/12/04 12:35:37;;;;;;;28.03;18.63;;;3.90;99.90;;;;;;5053697;28;20971;-74
2022/12/04 12:38:09;;;;;;;28.67;17.60;;;3.90;99.90;;;;;;5056885;28;20555;-74
2022/12/04 12:40:44;;;;;;;33.13;21.20;;;4.00;99.90;;;;;;5059029;28;20435;-74
2022/12/04 12:43:21;;;;;;;31.50;19.90;;;4.00;99.90;;;;;;5048941;28;20436;-74
2022/12/04 12:45:55;;;;;;;31.90;20.67;;;4.00;99.90;;;;;;5062499;28;20451;-74
2022/12/04 12:48:27;;;;;;;40.83;22.43;;;3.90;99.90;;;;;;5053947;28;20492;-74
2022/12/04 12:51:34;;;;;;;34.87;23.20;;;3.90;99.90;;;;;;5064944;28;20442;-74
2022/12/04 12:54:34;;;;;;;30.50;19.00;;;4.00;99.90;;;;;;5060548;28;20834;-74
2022/12/04 12:57:10;;;;;;;38.57;24.10;;;4.00;99.90;;;;;;5060657;28;20497;-74
2022/12/04 12:59:42;;;;;;;33.87;20.20;;;3.90;99.90;;;;;;5063921;28;20463;-74
2022/12/04 13:02:42;;;;;;;41.73;24.30;;;3.90;99.90;;;;;;5056925;28;20428;-74
2022/12/04 13:05:12;;;;;;;34.13;21.73;;;4.00;99.90;;;;;;5052183;28;20451;-74
2022/12/04 13:08:00;;;;;;;36.07;21.43;;;4.00;99.90;;;;;;5062474;28;20432;-74
2022/12/04 13:10:36;;;;;;;28.73;19.27;;;3.80;99.90;;;;;;5053493;28;20782;-74